Flight Track Log - Related Links

Times and Time Zones

All times are in EDT time to prevent confusion due to time zone crossing. See the SKW5305 flight status page for this flight to view local times or setup timezone preferences in your user account.

Time Position Orientation Groundspeed Altitude Reporting Facility
EDT Latitude Longitude Course Direction KTS MPH feet Rate Location/Type
Mon 08:33:16 PM 47.4822 -122.3117 180° South 123 142 2,000  Level Seattle Center
Mon 08:35:17 PM 47.5614 -122.3742 332° Northwest 178 205 6,300 2,077 Climbing Seattle Center
Mon 08:36:00 PM 47.0912 -122.3683 180° South  Level Estimated
Mon 08:36:18 PM 47.5211 -122.4075 209° Southwest 201 231 8,300  Level Seattle Center
Mon 08:37:00 PM 47.0015 -122.3823 180° South  Level Estimated
Mon 08:37:19 PM 47.4681 -122.3856 164° South 200 230 9,500  Level Seattle Center
Mon 08:38:00 PM 46.9410 -122.3917 180° South  Level Estimated
Mon 08:39:21 PM 47.3583 -122.3036 153° Southeast 220 253 12,200  Level Seattle Center
Mon 08:40:22 PM 47.2950 -122.3050 181° South 226 260 13,500 1,230 Climbing Seattle Center
Mon 08:41:23 PM 47.2311 -122.3100 183° South 231 266 14,700 492 Climbing Seattle Center
Mon 08:43:25 PM 47.0819 -122.3081 179° South 275 316 15,000 98 Climbing Seattle Center
Mon 08:44:26 PM 47.0017 -122.3086 180° South 289 333 15,000  Level Seattle Center
Mon 08:45:27 PM 46.9200 -122.3097 181° South 293 337 15,000  Level Seattle Center
Mon 08:46:28 PM 46.8381 -122.3092 180° South 295 339 15,000  Level Seattle Center
Mon 08:47:29 PM 46.7503 -122.3092 180° South 295 339 15,000  Level Seattle Center
Mon 08:48:30 PM 46.6811 -122.3103 181° South 294 338 15,000  Level Seattle Center
Mon 08:49:31 PM 46.5989 -122.3106 180° South 296 341 15,000  Level Seattle Center
Mon 08:50:32 PM 46.5008 -122.3297 188° South 301 346 15,000 -333 Level Seattle Center
Mon 08:52:00 PM 46.4124 -122.3123 172° South  Level FlightAware Approximate
Mon 08:52:31 PM 46.3364 -122.3653 172° South 303 349 14,000  Level Seattle Center
Mon 08:53:31 PM 46.2456 -122.3781 186° South 330 380 12,400 -1,884 Descending Seattle Center
Mon 08:54:32 PM 46.1536 -122.3947 187° South 326 375 10,200 -1,680 Descending Seattle Center
Mon 08:55:36 PM 46.0717 -122.4108 188° South 310 357 8,900 -720 Descending Seattle Center
Mon 08:56:37 PM 45.9942 -122.4400 195° South 290 334 8,700 -787 Descending Seattle Center
Mon 08:57:38 PM 45.9100 -122.4367 178° South 295 339 7,300 -1,292 Descending Seattle Center
Mon 08:58:47 PM 45.8044 -122.4372 180° South 285 328 5,900 -885 Descending Seattle Center
Mon 08:59:40 PM 45.7517 -122.4358 179° South 283 326 5,500 -453 Descending Seattle Center

Login

Don't have an account? Register now (free) for customized features, flight alerts, and more!